Biloxi, MS

6:32 PM CDT on August 31, 2016 (GMT -0500)
Forest Cove | | Change Station
Active Advisory: Coastal Flood Advisory

Elev 46 ft 30.44 °N, 88.91 °W | Updated 14 minutes ago

Partly Cloudy
Partly Cloudy
93.9 °F
Feels Like 101 °F
N
0.0
Wind Variable Wind from SE

Today
High -- | Low -- °F
--% Chance of Precip.
Yesterday
High -- | Low -- °F
Precip. -- in
Pressure 29.81 in
Visibility 10.0 miles
Clouds Few 6000 ft
Heat Index 101 °F
Dew Point 71 °F
Humidity 48%
Rainfall 0.00 in
Snow Depth Not available.
6:32 AM 7:18 PM
Waning Crescent, 0% visible
METAR KBIX 312258Z AUTO 06010KT 10SM FEW060 33/22 A2980 RMK AO2 SLP094 T03330215
Pressure 29.81 in
Visibility 10.0 miles
Clouds Few 6000 ft
Heat Index 101 °F
Dew Point 71 °F
Humidity 48%
Rainfall 0.00 in
Snow Depth Not available.
6:32 AM 7:18 PM
Waning Crescent, 0% visible
METAR KBIX 312258Z AUTO 06010KT 10SM FEW060 33/22 A2980 RMK AO2 SLP094 T03330215

10-Day Weather Forecast

Almanac

Astronomy

Aug. 31, 2016 Rise Set
Actual Time
Civil Twilight
Nautical Twilight
Astronomical Twilight
Moon
Length of Visible Light
Length of Day
Tomorrow will be .
, % of the Moon is Illuminated

Today's Extremes

State Highs State Lows

Community

WunderPhotos

Upload Photos

1,936,215 photos uploaded!

WunderBlog® & News

Nearby

Air Quality

  Air Quality AQ Index Pollutant
Not available.

Snow Depth

Station Depth Elevation

Earthquake Activity

City Distance Mag. Time & Date
Minimum magnitude displayed is 2.5.

Coastal Water Temperatures

Place Temperature

Stations

Nearby Weather Stations

Station Location Temp. Windchill Dew Point Humidity Wind Precip. Elev Updated Type
                   

Watches & Warnings

Coastal Flood Advisory
Issued: 3:19 PM CDT Aug. 31, 2016 – National Weather Service

... Coastal Flood Advisory now in effect until 7 am CDT Friday...

* coastal flooding... tides possibly 2 feet or higher above
normal.

* Timing... during times of high tide today and Thursday. High
tide times will be between 10am and 2pm today and Thursday.

* Impacts... tides up to 2 feet above normal will lead to
inundation of low lying coastal roadways and areas not
typically subject to coastal flooding during high tides
outside of protection levees.

Precautionary/preparedness actions...

A coastal Flood Advisory indicates that onshore winds and tides
will combine to generate flooding of low areas along the shore.